Melrose, Iowa
Current Conditions -  °F | °C
As of 5:15 AM on Monday 22 Dec 2014 (Local Time) from KCNC Reporting Station
Overcast Overcast  
Wind Chill: 32°   Ceiling: 1900
Heat Index: 39°   Visibility: 8mi
Dew Point: 37°   Wind: 13mph
Humidity: 93%   Direction: 140°SE
Pressure: 29.67"   Gusts: NA
Location:  40.98°N, 93.05°W
Report Text: KCNC 221115Z AUTO 14011KT 8SM OVC019 04/03 A2967 RMK AO2
Loading
Personal Weather Stations






























Interactive Weather Map New forecast layout! Learn more

10-Day Weather Forecast

Advertisements
Track Severe Weather on mobile